Oakwood, Virginia
Current Conditions -  °F | °C
As of 7:35 AM on Thursday 29 Jan 2015 (Local Time) from KJFZ Reporting Station
Clear Clear  
Wind Chill: 33°   Ceiling: Unl
Heat Index: 37°   Visibility: 10mi
Dew Point:   Wind: 5mph
Humidity: 31%   Direction: 170°S
Pressure: 30.11"   Gusts: NA
Location:  37.2°N, 82°W
Report Text: KJFZ 291235Z AUTO 17004KT 10SM CLR 03/M13 A3011 RMK AO2 T00261130
Loading
Personal Weather Stations






























Interactive Weather Map New forecast layout! Learn more

10-Day Weather Forecast

Advertisements
Track Severe Weather on mobile